Time;durP1;ratioP1;P1;durP2;ratioP2;P2;SDS_P1;SDS_P2;PMS_P1;PMS_P2;Temp;Humidity;BMP_temperature;BMP_pressure;BME280_temperature;BME280_humidity;BME280_pressure;Samples;Min_cycle;Max_cycle;Signal;HPM_P1;HPM_P2
2022/01/12 00:01:05;;;;;;;17.83;5.28;;;8.50;99.90;;;;;;5047106;28;20068;-69
2022/01/12 00:03:33;;;;;;;23.20;6.03;;;8.40;99.90;;;;;;5047800;28;20056;-68
2022/01/12 00:06:01;;;;;;;17.88;5.45;;;8.40;99.90;;;;;;5049632;28;20045;-69
2022/01/12 00:08:30;;;;;;;25.27;5.95;;;8.40;99.90;;;;;;5052109;28;20537;-68
2022/01/12 00:11:01;;;;;;;16.63;5.55;;;8.40;99.90;;;;;;5049899;28;20461;-69
2022/01/12 00:13:28;;;;;;;30.70;6.20;;;8.40;99.90;;;;;;5048555;28;20076;-69
2022/01/12 00:15:55;;;;;;;24.65;6.55;;;8.30;99.90;;;;;;5046959;28;20053;-68
2022/01/12 00:18:22;;;;;;;30.50;5.88;;;8.30;99.90;;;;;;5048316;28;20103;-68
2022/01/12 00:20:49;;;;;;;23.92;6.15;;;8.30;99.90;;;;;;5047913;28;20080;-69
2022/01/12 00:23:17;;;;;;;21.73;6.72;;;8.30;99.90;;;;;;5048069;28;20118;-68
2022/01/12 00:25:57;;;;;;;18.20;6.07;;;8.30;99.90;;;;;;5046760;28;20774;-68
2022/01/12 00:33:56;;;;;;;15.23;5.30;;;8.10;99.90;;;;;;5043485;28;20127;-68
2022/01/12 00:36:26;;;;;;;17.98;6.00;;;8.10;99.90;;;;;;5050936;28;20488;-67
2022/01/12 00:38:53;;;;;;;20.17;6.18;;;8.00;99.90;;;;;;5032869;28;20521;-69
2022/01/12 00:41:19;;;;;;;13.63;5.80;;;7.90;99.90;;;;;;5047202;28;20110;-68
2022/01/12 00:43:50;;;;;;;22.50;5.85;;;7.90;99.90;;;;;;5052010;28;20084;-68
2022/01/12 00:46:17;;;;;;;21.00;6.72;;;7.80;99.90;;;;;;5050542;28;20047;-68
2022/01/12 00:48:43;;;;;;;18.42;5.63;;;7.80;99.90;;;;;;5051934;28;20108;-68
2022/01/12 00:51:11;;;;;;;16.90;5.60;;;7.80;99.90;;;;;;5050859;28;20044;-69
2022/01/12 00:53:39;;;;;;;13.70;5.97;;;7.80;99.90;;;;;;5052231;28;20052;-70
2022/01/12 00:56:06;;;;;;;20.85;6.80;;;7.70;99.90;;;;;;5050635;28;20401;-68
2022/01/12 00:58:36;;;;;;;19.40;5.40;;;7.70;99.90;;;;;;5052022;28;20067;-67
2022/01/12 01:01:03;;;;;;;20.83;4.75;;;7.70;99.90;;;;;;5051636;28;20045;-69
2022/01/12 01:03:31;;;;;;;18.33;5.07;;;7.70;99.90;;;;;;5051799;28;20068;-68
2022/01/12 01:06:01;;;;;;;19.70;5.07;;;7.60;99.90;;;;;;5050625;28;20175;-70
2022/01/12 01:08:28;;;;;;;18.17;5.88;;;7.60;99.90;;;;;;5051458;28;20053;-69
2022/01/12 01:10:56;;;;;;;24.27;5.88;;;7.50;99.90;;;;;;5051127;28;20049;-69
2022/01/12 01:13:26;;;;;;;23.30;5.47;;;7.50;99.90;;;;;;5051044;28;20099;-68
2022/01/12 01:16:04;;;;;;;25.30;4.97;;;7.40;99.90;;;;;;5051214;28;20052;-68
2022/01/12 01:26:48;;;;;;;16.88;5.65;;;7.30;99.90;;;;;;5051413;28;20076;-68
2022/01/12 01:29:15;;;;;;;19.13;4.90;;;7.30;99.90;;;;;;5052653;28;20049;-68
2022/01/12 01:31:44;;;;;;;19.67;5.18;;;7.20;99.90;;;;;;5051976;28;20064;-69
2022/01/12 01:34:13;;;;;;;23.42;5.45;;;7.20;99.90;;;;;;5051960;28;20170;-68
2022/01/12 01:36:49;;;;;;;16.58;4.95;;;7.20;99.90;;;;;;5052847;28;20045;-68
2022/01/12 01:39:18;;;;;;;13.55;4.53;;;7.20;99.90;;;;;;5049100;28;20077;-67
2022/01/12 01:42:02;;;;;;;19.38;4.90;;;7.20;99.90;;;;;;5050697;28;20103;-68
2022/01/12 01:55:14;;;;;;;22.58;6.05;;;7.20;99.90;;;;;;5041472;28;20048;-69
2022/01/12 01:57:41;;;;;;;20.15;6.03;;;7.10;99.90;;;;;;5051440;28;20107;-68
2022/01/12 02:00:10;;;;;;;19.30;6.60;;;7.10;99.90;;;;;;5051773;28;20075;-68
2022/01/12 02:02:37;;;;;;;26.27;7.43;;;7.10;99.90;;;;;;5051104;28;20049;-68
2022/01/12 02:05:05;;;;;;;27.08;8.00;;;7.10;99.90;;;;;;5050896;28;20045;-69
2022/01/12 02:07:33;;;;;;;20.33;6.38;;;7.00;99.90;;;;;;5049985;28;20045;-69
2022/01/12 02:10:00;;;;;;;25.27;7.80;;;7.00;99.90;;;;;;5050179;28;20098;-68
2022/01/12 02:12:27;;;;;;;20.70;7.85;;;6.90;99.90;;;;;;5051247;28;20048;-68
2022/01/12 02:14:55;;;;;;;17.90;7.40;;;6.90;99.90;;;;;;5050680;28;20094;-68
2022/01/12 02:17:29;;;;;;;14.60;6.88;;;6.90;99.90;;;;;;5050684;28;20368;-68
2022/01/12 02:20:23;;;;;;;19.30;7.15;;;6.90;99.90;;;;;;5049979;28;20103;-67
2022/01/12 02:36:33;;;;;;;21.00;6.68;;;6.50;99.90;;;;;;5039833;28;20099;-67
2022/01/12 02:41:46;;;;;;;20.98;8.35;;;6.40;99.90;;;;;;5045424;28;20055;-67
2022/01/12 02:54:48;;;;;;;19.17;8.60;;;6.30;99.90;;;;;;5049625;28;20099;-68
2022/01/12 02:57:15;;;;;;;22.85;6.78;;;6.30;99.90;;;;;;5050861;28;20114;-67
2022/01/12 03:02:30;;;;;;;26.15;8.48;;;6.30;99.90;;;;;;5037490;28;20056;-67
2022/01/12 03:07:39;;;;;;;20.88;7.50;;;6.30;99.90;;;;;;5040288;28;20045;-68
2022/01/12 03:10:07;;;;;;;28.63;8.20;;;6.20;99.90;;;;;;5047960;28;20724;-70
2022/01/12 03:12:38;;;;;;;24.27;7.75;;;6.20;99.90;;;;;;5049120;28;20083;-69
2022/01/12 03:15:05;;;;;;;22.63;7.35;;;6.20;99.90;;;;;;5048836;28;20558;-69
2022/01/12 03:17:32;;;;;;;21.00;9.13;;;6.10;99.90;;;;;;5049105;28;20071;-68
2022/01/12 03:19:58;;;;;;;21.08;7.68;;;6.00;99.90;;;;;;5049066;28;20068;-69
2022/01/12 03:22:25;;;;;;;15.80;7.03;;;6.00;99.90;;;;;;5047889;28;20084;-68
2022/01/12 03:24:52;;;;;;;17.95;7.60;;;5.90;99.90;;;;;;5050568;28;20562;-68
2022/01/12 03:27:21;;;;;;;18.30;7.20;;;5.90;99.90;;;;;;5050329;28;20041;-68
2022/01/12 03:29:51;;;;;;;22.50;7.63;;;5.80;99.90;;;;;;5048610;28;20072;-69
2022/01/12 03:32:23;;;;;;;21.77;6.78;;;5.80;99.90;;;;;;5048566;28;20080;-69
2022/01/12 03:34:57;;;;;;;18.23;7.30;;;5.80;99.90;;;;;;5048679;28;20087;-69
2022/01/12 03:37:54;;;;;;;22.17;8.30;;;5.70;99.90;;;;;;5048486;28;20045;-68
2022/01/12 03:40:21;;;;;;;21.85;7.53;;;5.70;99.90;;;;;;5028916;28;20053;-69
2022/01/12 03:42:49;;;;;;;17.85;7.15;;;5.50;99.90;;;;;;5046657;28;20102;-69
2022/01/12 03:45:16;;;;;;;24.23;8.00;;;5.50;99.90;;;;;;5047501;28;20149;-69
2022/01/12 03:47:42;;;;;;;22.45;7.63;;;5.40;99.90;;;;;;5048166;28;20458;-68
2022/01/12 03:50:09;;;;;;;18.17;6.28;;;5.40;99.90;;;;;;5048819;28;20044;-69
2022/01/12 03:52:36;;;;;;;16.20;7.03;;;5.30;99.90;;;;;;5046920;28;20049;-68
2022/01/12 03:55:07;;;;;;;22.67;7.63;;;5.30;99.90;;;;;;5048736;28;20083;-68
2022/01/12 03:57:34;;;;;;;21.42;7.03;;;5.30;99.90;;;;;;5048182;28;20142;-68
2022/01/12 04:00:01;;;;;;;23.35;7.80;;;5.30;99.90;;;;;;5048443;28;20040;-68
2022/01/12 04:02:30;;;;;;;20.70;7.90;;;5.20;99.90;;;;;;5044199;28;20106;-68
2022/01/12 04:05:25;;;;;;;19.67;7.60;;;5.10;99.90;;;;;;5033644;28;20049;-68
2022/01/12 04:10:37;;;;;;;22.55;8.35;;;5.00;99.90;;;;;;5047415;28;20053;-68
2022/01/12 04:13:04;;;;;;;22.90;7.05;;;5.00;99.90;;;;;;5047987;28;20073;-68
2022/01/12 04:15:31;;;;;;;18.58;7.10;;;5.00;99.90;;;;;;5047111;28;20569;-68
2022/01/12 04:17:58;;;;;;;26.38;7.20;;;5.00;99.90;;;;;;5047769;28;20080;-68
2022/01/12 04:20:24;;;;;;;18.90;7.68;;;5.00;99.90;;;;;;5048251;28;20076;-68
2022/01/12 04:25:37;;;;;;;13.88;6.78;;;4.90;99.90;;;;;;5048195;28;20407;-68
2022/01/12 04:28:04;;;;;;;14.02;6.45;;;4.80;99.90;;;;;;5047990;28;20095;-68
2022/01/12 04:30:30;;;;;;;18.58;7.78;;;4.70;99.90;;;;;;5047726;28;20671;-69
2022/01/12 04:32:57;;;;;;;25.10;7.57;;;4.70;99.90;;;;;;5047576;28;20072;-68
2022/01/12 04:35:29;;;;;;;20.02;7.57;;;4.70;99.90;;;;;;5036907;28;20041;-68
2022/01/12 04:37:56;;;;;;;12.65;6.57;;;4.70;99.90;;;;;;5047858;28;20049;-68
2022/01/12 04:40:23;;;;;;;18.80;7.15;;;4.60;99.90;;;;;;5046816;28;20045;-68
2022/01/12 04:42:52;;;;;;;16.02;5.78;;;4.60;99.90;;;;;;5046812;28;20095;-69
2022/01/12 04:45:46;;;;;;;14.90;7.32;;;4.50;99.90;;;;;;5046719;28;20049;-68
2022/01/12 04:50:56;;;;;;;13.07;5.50;;;4.40;99.90;;;;;;5053736;28;20076;-67
2022/01/12 04:53:23;;;;;;;19.83;7.25;;;4.40;99.90;;;;;;5047869;28;20409;-67
2022/01/12 04:55:50;;;;;;;13.20;6.97;;;4.40;99.90;;;;;;5048221;28;20094;-69
2022/01/12 04:58:17;;;;;;;16.20;6.18;;;4.40;99.90;;;;;;5048538;28;20060;-68
2022/01/12 05:00:45;;;;;;;17.75;7.15;;;4.40;99.90;;;;;;5048602;28;20060;-69
2022/01/12 05:13:56;;;;;;;16.15;7.53;;;4.20;99.90;;;;;;5050582;28;20049;-67
2022/01/12 05:16:23;;;;;;;16.83;7.35;;;4.20;99.90;;;;;;5048587;28;20037;-68
2022/01/12 05:18:51;;;;;;;18.55;6.80;;;4.20;99.90;;;;;;5048738;28;20049;-67
2022/01/12 05:21:19;;;;;;;12.00;5.97;;;4.20;99.90;;;;;;5047804;28;20045;-67
2022/01/12 05:23:46;;;;;;;13.75;6.22;;;4.10;99.90;;;;;;5050257;28;20080;-67
2022/01/12 05:26:13;;;;;;;15.27;6.70;;;4.00;99.90;;;;;;5051063;28;20053;-68
2022/01/12 05:28:40;;;;;;;14.02;6.70;;;4.00;99.90;;;;;;5051262;28;20103;-68
2022/01/12 05:31:07;;;;;;;13.48;6.97;;;3.90;99.90;;;;;;5050929;28;20091;-68
2022/01/12 05:33:34;;;;;;;16.38;6.95;;;3.90;99.90;;;;;;5051222;28;20049;-68
2022/01/12 05:36:03;;;;;;;15.50;7.00;;;3.90;99.90;;;;;;5051094;28;20084;-68
2022/01/12 05:38:30;;;;;;;19.85;7.88;;;3.90;99.90;;;;;;5050194;28;20492;-68
2022/01/12 05:41:00;;;;;;;14.65;6.50;;;3.90;99.90;;;;;;5051117;28;20091;-68
2022/01/12 05:43:29;;;;;;;12.88;5.93;;;3.90;99.90;;;;;;5051243;28;20281;-68
2022/01/12 05:46:08;;;;;;;11.90;6.13;;;3.80;99.90;;;;;;5049749;28;20112;-68
2022/01/12 05:51:22;;;;;;;14.60;6.50;;;3.70;99.90;;;;;;5050962;28;20045;-67
2022/01/12 05:53:49;;;;;;;12.38;5.18;;;3.60;99.90;;;;;;5033258;28;20103;-68
2022/01/12 05:56:16;;;;;;;12.95;6.72;;;3.60;99.90;;;;;;5050601;28;20141;-69
2022/01/12 05:58:42;;;;;;;13.55;5.93;;;3.60;99.90;;;;;;5050713;28;20077;-67
2022/01/12 06:01:11;;;;;;;11.90;5.43;;;3.50;99.90;;;;;;5050707;28;20048;-68
2022/01/12 06:03:38;;;;;;;9.20;4.68;;;3.50;99.90;;;;;;5051085;28;20079;-68
2022/01/12 06:06:05;;;;;;;11.57;5.13;;;3.40;99.90;;;;;;5050730;28;20049;-68
2022/01/12 06:08:32;;;;;;;20.88;6.85;;;3.30;99.90;;;;;;5051277;28;20053;-68
2022/01/12 06:10:59;;;;;;;16.52;6.82;;;3.30;99.90;;;;;;5050608;28;20084;-69
2022/01/12 06:13:26;;;;;;;10.93;6.07;;;3.30;99.90;;;;;;5050662;28;20071;-69
2022/01/12 06:15:52;;;;;;;11.23;5.97;;;3.30;99.90;;;;;;5050236;28;20049;-69
2022/01/12 06:18:19;;;;;;;18.83;6.50;;;3.40;99.90;;;;;;5050354;28;20102;-68
2022/01/12 06:20:46;;;;;;;10.45;5.30;;;3.40;99.90;;;;;;5050276;28;20110;-68
2022/01/12 06:23:13;;;;;;;16.92;7.25;;;3.30;99.90;;;;;;5050150;28;20494;-70
2022/01/12 06:25:40;;;;;;;11.35;5.43;;;3.40;99.90;;;;;;5050302;28;20106;-68
2022/01/12 06:28:23;;;;;;;12.68;5.57;;;3.40;99.90;;;;;;5049137;28;20087;-68
2022/01/12 06:33:40;;;;;;;14.80;6.40;;;4.10;99.90;;;;;;5050584;28;20068;-67
2022/01/12 06:36:07;;;;;;;15.07;6.32;;;3.30;99.90;;;;;;5051881;28;20095;-67
2022/01/12 06:38:34;;;;;;;14.02;6.78;;;3.30;99.90;;;;;;5051851;28;20075;-69
2022/01/12 06:41:02;;;;;;;15.35;6.22;;;3.30;99.90;;;;;;5039737;28;20099;-68
2022/01/12 06:43:29;;;;;;;17.17;5.93;;;3.30;99.90;;;;;;5050498;28;20052;-71
2022/01/12 06:45:56;;;;;;;12.63;5.93;;;3.30;99.90;;;;;;5051003;28;20053;-68
2022/01/12 06:48:23;;;;;;;17.02;7.30;;;3.30;99.90;;;;;;5050367;28;20072;-68
2022/01/12 06:50:50;;;;;;;13.68;6.55;;;3.20;99.90;;;;;;5050932;28;20052;-68
2022/01/12 06:53:17;;;;;;;13.48;6.35;;;3.30;99.90;;;;;;5052816;28;20056;-68
2022/01/12 06:55:44;;;;;;;12.93;5.82;;;3.20;99.90;;;;;;5053440;28;20048;-69
2022/01/12 06:58:11;;;;;;;14.07;6.35;;;3.20;99.90;;;;;;5052641;28;20049;-68
2022/01/12 07:00:38;;;;;;;15.43;7.95;;;3.20;99.90;;;;;;5052889;28;20076;-68
2022/01/12 07:03:05;;;;;;;16.60;6.80;;;3.20;99.90;;;;;;5050847;28;20044;-68
2022/01/12 07:05:32;;;;;;;17.88;7.30;;;3.10;99.90;;;;;;5049689;28;20064;-69
2022/01/12 07:07:58;;;;;;;11.35;6.32;;;3.10;99.90;;;;;;5048724;28;20114;-69
2022/01/12 07:10:25;;;;;;;12.38;6.97;;;3.10;99.90;;;;;;5049670;28;20084;-69
2022/01/12 07:12:52;;;;;;;23.10;8.57;;;3.00;99.90;;;;;;5049368;28;20080;-70
2022/01/12 07:15:19;;;;;;;19.23;9.07;;;3.00;99.90;;;;;;5049249;28;20087;-68
2022/01/12 07:17:47;;;;;;;31.15;8.73;;;2.90;99.90;;;;;;5049450;28;20045;-69
2022/01/12 07:20:14;;;;;;;20.70;8.10;;;2.90;99.90;;;;;;5049475;28;20073;-68
2022/01/12 07:22:41;;;;;;;19.58;7.88;;;2.90;99.90;;;;;;5050797;28;20059;-68
2022/01/12 07:25:08;;;;;;;17.38;8.70;;;2.90;99.90;;;;;;5048950;28;20052;-68
2022/01/12 07:27:35;;;;;;;19.35;7.32;;;2.90;99.90;;;;;;5050577;28;20045;-69
2022/01/12 07:30:02;;;;;;;18.35;8.65;;;2.90;99.90;;;;;;5049453;28;20091;-68
2022/01/12 07:32:29;;;;;;;19.83;8.10;;;2.90;99.90;;;;;;5048150;28;20049;-69
2022/01/12 07:34:56;;;;;;;14.48;8.52;;;2.90;99.90;;;;;;5049449;28;20052;-69
2022/01/12 07:37:22;;;;;;;29.30;10.05;;;2.90;99.90;;;;;;5047987;28;20118;-70
2022/01/12 07:39:49;;;;;;;17.02;7.50;;;2.90;99.90;;;;;;5046912;28;20040;-70
2022/01/12 07:42:16;;;;;;;19.23;7.72;;;2.90;99.90;;;;;;5049216;28;20462;-69
2022/01/12 07:44:43;;;;;;;18.55;7.40;;;2.90;99.90;;;;;;5050338;28;20045;-66
2022/01/12 07:47:10;;;;;;;11.32;6.30;;;2.90;99.90;;;;;;5050480;28;20103;-69
2022/01/12 07:49:37;;;;;;;12.52;6.57;;;2.90;99.90;;;;;;5050637;28;20045;-68
2022/01/12 07:52:05;;;;;;;18.30;8.93;;;2.90;99.90;;;;;;5049360;28;20063;-69
2022/01/12 07:54:32;;;;;;;15.65;7.05;;;2.90;99.90;;;;;;5048838;28;20041;-68
2022/01/12 07:56:59;;;;;;;19.15;8.35;;;2.90;99.90;;;;;;5048287;28;20088;-71
2022/01/12 07:59:26;;;;;;;16.98;7.68;;;2.90;99.90;;;;;;5047472;28;20106;-70
2022/01/12 08:01:52;;;;;;;15.70;7.90;;;2.90;99.90;;;;;;5048513;28;20049;-71
2022/01/12 08:04:20;;;;;;;18.42;7.65;;;2.90;99.90;;;;;;5048284;28;20056;-72
2022/01/12 08:06:49;;;;;;;22.90;7.78;;;2.80;99.90;;;;;;5048191;28;20179;-68
2022/01/12 08:09:16;;;;;;;14.38;8.02;;;2.80;99.90;;;;;;5048479;28;20048;-67
2022/01/12 08:11:42;;;;;;;13.57;7.07;;;2.90;99.90;;;;;;5048340;28;20072;-70
2022/01/12 08:14:09;;;;;;;17.75;9.32;;;2.90;99.90;;;;;;5029508;28;20526;-70
2022/01/12 08:16:36;;;;;;;19.88;8.40;;;2.90;99.90;;;;;;5048407;28;20060;-70
2022/01/12 08:19:03;;;;;;;17.85;8.43;;;2.90;99.90;;;;;;5048115;28;20068;-71
2022/01/12 08:21:30;;;;;;;21.77;9.27;;;2.80;99.90;;;;;;5048102;28;20082;-70
2022/01/12 08:23:57;;;;;;;28.27;9.10;;;2.70;99.90;;;;;;5046650;28;20095;-69
2022/01/12 08:26:31;;;;;;;23.23;9.00;;;2.60;99.90;;;;;;5047825;28;20089;-70
2022/01/12 08:28:58;;;;;;;17.00;8.93;;;2.60;99.90;;;;;;5047882;28;20107;-69
2022/01/12 08:31:25;;;;;;;21.83;9.43;;;2.70;99.90;;;;;;5046209;28;20099;-70
2022/01/12 08:33:52;;;;;;;18.50;9.95;;;2.70;99.90;;;;;;5047900;28;20049;-70
2022/01/12 08:36:18;;;;;;;16.92;9.52;;;2.70;99.90;;;;;;5046492;28;20044;-70
2022/01/12 08:38:45;;;;;;;22.20;9.98;;;2.70;99.90;;;;;;5048418;28;20045;-71
2022/01/12 08:41:12;;;;;;;27.27;9.65;;;2.80;99.90;;;;;;5048601;28;20615;-70
2022/01/12 08:43:39;;;;;;;20.83;9.35;;;2.70;99.90;;;;;;5047940;28;20492;-69
2022/01/12 08:46:06;;;;;;;27.77;9.32;;;2.70;99.90;;;;;;5048126;28;20059;-69
2022/01/12 08:48:33;;;;;;;17.58;8.63;;;2.80;99.90;;;;;;5046465;28;20044;-69
2022/01/12 08:51:01;;;;;;;22.30;10.73;;;2.80;99.90;;;;;;5047573;28;20068;-69
2022/01/12 08:53:28;;;;;;;19.70;10.32;;;2.80;99.90;;;;;;5046498;28;20072;-69
2022/01/12 08:55:55;;;;;;;26.10;9.85;;;2.80;99.90;;;;;;5045988;28;20041;-70
2022/01/12 08:58:24;;;;;;;26.50;11.32;;;2.80;99.90;;;;;;5040329;28;20107;-70
2022/01/12 09:00:51;;;;;;;30.60;13.48;;;2.90;99.90;;;;;;5051415;28;20084;-70
2022/01/12 09:03:19;;;;;;;30.88;17.98;;;2.90;99.90;;;;;;5051334;28;20052;-69
2022/01/12 09:05:46;;;;;;;35.30;20.08;;;2.90;99.90;;;;;;5052128;28;20049;-70
2022/01/12 09:08:12;;;;;;;34.00;16.40;;;3.00;99.90;;;;;;5051220;28;20098;-69
2022/01/12 09:10:39;;;;;;;28.27;12.45;;;3.00;99.90;;;;;;5051616;28;20076;-69
2022/01/12 09:13:06;;;;;;;31.02;14.50;;;3.10;99.90;;;;;;5050078;28;20090;-71
2022/01/12 09:15:33;;;;;;;33.33;15.23;;;3.10;99.90;;;;;;5050305;28;20052;-70
2022/01/12 09:18:00;;;;;;;29.27;15.10;;;3.20;99.90;;;;;;5049691;28;20049;-70
2022/01/12 09:20:28;;;;;;;32.60;16.05;;;3.20;99.90;;;;;;5049832;28;20040;-71
2022/01/12 09:22:55;;;;;;;33.42;13.30;;;3.20;99.90;;;;;;5048409;28;20053;-68
2022/01/12 09:25:22;;;;;;;28.08;13.35;;;3.30;99.90;;;;;;5049998;28;20048;-69
2022/01/12 09:27:49;;;;;;;35.08;14.07;;;3.30;99.90;;;;;;5050915;28;20059;-70
2022/01/12 09:30:18;;;;;;;30.10;14.50;;;3.40;99.90;;;;;;5051466;28;20037;-70
2022/01/12 09:32:45;;;;;;;37.17;13.63;;;3.40;99.90;;;;;;5050878;28;20127;-69
2022/01/12 09:35:17;;;;;;;27.80;15.00;;;3.30;99.90;;;;;;5051186;28;20051;-69
2022/01/12 09:37:44;;;;;;;25.17;13.52;;;3.30;99.90;;;;;;5050776;28;20037;-70
2022/01/12 09:40:12;;;;;;;23.95;13.48;;;3.40;99.90;;;;;;5051216;28;20049;-70
2022/01/12 09:42:39;;;;;;;31.67;13.18;;;3.40;99.90;;;;;;5051147;28;20111;-70
2022/01/12 09:45:07;;;;;;;25.95;12.55;;;3.40;99.90;;;;;;5049260;28;20504;-69
2022/01/12 09:47:34;;;;;;;24.83;11.02;;;3.40;99.90;;;;;;5049758;28;20075;-70
2022/01/12 09:50:01;;;;;;;25.35;12.15;;;3.40;99.90;;;;;;5050827;28;20049;-70
2022/01/12 09:52:28;;;;;;;27.77;11.27;;;3.40;99.90;;;;;;5051546;28;20068;-69
2022/01/12 09:54:55;;;;;;;29.20;11.30;;;3.40;99.90;;;;;;5049456;28;20045;-69
2022/01/12 09:57:22;;;;;;;24.92;10.43;;;3.40;99.90;;;;;;5050958;28;20049;-70
2022/01/12 09:59:49;;;;;;;24.73;11.10;;;3.40;99.90;;;;;;5050784;28;20053;-69
2022/01/12 10:02:16;;;;;;;20.60;9.77;;;3.40;99.90;;;;;;5049442;28;20045;-69
2022/01/12 10:04:44;;;;;;;23.02;11.00;;;3.50;99.90;;;;;;5050174;28;20045;-68
2022/01/12 10:07:13;;;;;;;27.80;11.63;;;3.40;99.90;;;;;;5050375;28;20052;-69
2022/01/12 10:09:44;;;;;;;26.02;10.32;;;3.50;99.90;;;;;;5049573;28;20099;-69
2022/01/12 10:12:21;;;;;;;23.25;12.65;;;3.50;99.90;;;;;;5050590;28;20048;-70
2022/01/12 10:14:52;;;;;;;34.72;13.52;;;3.50;99.90;;;;;;5050636;28;20488;-70
2022/01/12 10:17:29;;;;;;;31.17;12.35;;;3.70;99.90;;;;;;5050657;28;20099;-70
2022/01/12 10:20:13;;;;;;;29.55;12.25;;;3.60;99.90;;;;;;5052941;28;20052;-69
2022/01/12 10:22:43;;;;;;;25.95;12.27;;;3.70;99.90;;;;;;5054459;28;20048;-68
2022/01/12 10:25:19;;;;;;;30.60;13.70;;;3.70;99.90;;;;;;5051964;28;20044;-69
2022/01/12 10:27:46;;;;;;;23.40;12.27;;;3.80;99.90;;;;;;5052421;28;20053;-69
2022/01/12 10:30:39;;;;;;;29.00;11.20;;;3.90;99.90;;;;;;5052486;28;20091;-69
2022/01/12 10:33:08;;;;;;;29.50;13.32;;;3.90;99.90;;;;;;5044740;28;20095;-70
2022/01/12 10:35:37;;;;;;;32.20;13.05;;;3.90;99.90;;;;;;5051024;28;20099;-70
2022/01/12 10:38:11;;;;;;;25.27;13.52;;;3.90;99.90;;;;;;5054053;28;20052;-69
2022/01/12 10:40:57;;;;;;;31.33;12.43;;;3.90;99.90;;;;;;5052412;28;20480;-68
2022/01/12 10:43:34;;;;;;;25.88;12.85;;;3.90;99.90;;;;;;5053398;28;20049;-70
2022/01/12 10:46:04;;;;;;;29.35;12.10;;;4.00;99.90;;;;;;5051729;28;20597;-68
2022/01/12 10:48:41;;;;;;;27.63;12.38;;;4.00;99.90;;;;;;5050725;28;20106;-68
2022/01/12 10:51:08;;;;;;;32.45;13.90;;;4.00;99.90;;;;;;5050280;28;20136;-68
2022/01/12 10:53:35;;;;;;;32.45;12.73;;;4.10;99.90;;;;;;5050607;28;20053;-69
2022/01/12 10:56:12;;;;;;;31.70;12.10;;;4.10;99.90;;;;;;5050450;28;20595;-70
2022/01/12 10:58:46;;;;;;;28.63;13.00;;;4.20;99.90;;;;;;5048917;28;20550;-70
2022/01/12 11:01:13;;;;;;;;;;;4.20;99.90;;;;;;5050092;28;20040;-70
2022/01/12 11:03:40;;;;;;;39.17;13.27;;;4.30;99.90;;;;;;5049579;28;20391;-69
2022/01/12 11:06:07;;;;;;;33.67;14.18;;;4.40;99.90;;;;;;5048043;28;20102;-69
2022/01/12 11:08:35;;;;;;;30.10;11.98;;;4.50;99.90;;;;;;5048413;28;20123;-70
2022/01/12 11:11:02;;;;;;;31.77;13.13;;;4.50;99.90;;;;;;5049343;28;20052;-68
2022/01/12 11:13:29;;;;;;;33.03;13.32;;;4.50;99.90;;;;;;5049334;28;20110;-69
2022/01/12 11:15:56;;;;;;;32.22;12.60;;;4.50;99.90;;;;;;5048255;28;20045;-70
2022/01/12 11:18:28;;;;;;;33.15;12.63;;;4.60;99.90;;;;;;5045434;28;20049;-69
2022/01/12 11:21:07;;;;;;;29.38;13.15;;;4.70;99.90;;;;;;5048733;28;20041;-71
2022/01/12 11:23:39;;;;;;;29.75;11.88;;;4.70;99.90;;;;;;5044277;28;20095;-70
2022/01/12 11:26:20;;;;;;;31.85;12.35;;;4.90;99.90;;;;;;5047785;28;20732;-70
2022/01/12 11:28:48;;;;;;;34.05;11.27;;;4.90;99.90;;;;;;5043568;28;20052;-69
2022/01/12 11:31:26;;;;;;;33.60;13.00;;;4.90;99.90;;;;;;5049442;28;20053;-70
2022/01/12 11:33:53;;;;;;;30.00;11.45;;;5.00;99.90;;;;;;5049384;28;20045;-69
2022/01/12 11:36:28;;;;;;;34.00;11.95;;;5.10;99.90;;;;;;5047836;28;20508;-69
2022/01/12 11:39:08;;;;;;;38.38;13.38;;;5.10;99.90;;;;;;5049619;28;20048;-70
2022/01/12 11:41:47;;;;;;;34.22;12.55;;;5.20;99.90;;;;;;5049375;28;20106;-70
2022/01/12 11:44:22;;;;;;;28.48;11.32;;;5.30;99.90;;;;;;5048850;28;20090;-70
2022/01/12 11:46:51;;;;;;;40.88;12.23;;;5.40;99.90;;;;;;5048770;28;20045;-69
2022/01/12 11:49:31;;;;;;;36.03;13.23;;;5.50;99.90;;;;;;5046717;28;20056;-69
2022/01/12 11:52:12;;;;;;;34.42;12.05;;;5.50;99.90;;;;;;5048430;28;20114;-69
2022/01/12 11:54:44;;;;;;;47.10;13.25;;;5.60;99.90;;;;;;5045378;28;20049;-69
2022/01/12 11:57:13;;;;;;;29.95;10.98;;;5.70;99.90;;;;;;5048349;28;20071;-69
2022/01/12 11:59:52;;;;;;;35.17;12.60;;;5.80;99.90;;;;;;5047872;28;20041;-69
2022/01/12 12:02:20;;;;;;;38.83;13.52;;;5.80;99.90;;;;;;5048541;28;20057;-69
2022/01/12 12:04:54;;;;;;;28.88;11.18;;;5.90;99.90;;;;;;5047072;28;20415;-70
2022/01/12 12:07:23;;;;;;;29.10;11.95;;;6.00;99.90;;;;;;5048532;28;20096;-69
2022/01/12 12:09:53;;;;;;;29.55;11.88;;;6.00;99.90;;;;;;5030987;28;20123;-68
2022/01/12 12:12:23;;;;;;;36.40;11.65;;;6.10;99.90;;;;;;5048750;28;20064;-69
2022/01/12 12:14:55;;;;;;;30.30;12.15;;;6.10;99.90;;;;;;5048489;28;20102;-69
2022/01/12 12:17:23;;;;;;;33.28;11.95;;;6.20;99.90;;;;;;5048817;28;20053;-69
2022/01/12 12:19:49;;;;;;;30.08;10.57;;;6.20;99.90;;;;;;5048239;28;20102;-69
2022/01/12 12:22:18;;;;;;;38.88;10.77;;;6.30;99.90;;;;;;5048208;28;20045;-68
2022/01/12 12:24:57;;;;;;;36.00;10.52;;;6.40;99.90;;;;;;5048728;28;20067;-71
2022/01/12 12:27:25;;;;;;;24.67;8.63;;;6.50;99.90;;;;;;5048976;28;20099;-69
2022/01/12 12:29:52;;;;;;;20.95;9.60;;;6.50;99.90;;;;;;5048786;28;20045;-69
2022/01/12 12:32:20;;;;;;;28.45;9.18;;;6.60;99.90;;;;;;5050354;28;20084;-70
2022/01/12 12:34:47;;;;;;;28.70;10.35;;;6.60;99.90;;;;;;5052509;28;20041;-70
2022/01/12 12:37:15;;;;;;;28.05;10.10;;;6.60;99.90;;;;;;5053024;28;20049;-69
2022/01/12 12:39:44;;;;;;;34.13;11.77;;;6.70;99.90;;;;;;5052425;28;20041;-69
2022/01/12 12:42:19;;;;;;;38.58;14.07;;;6.70;99.90;;;;;;5053738;28;20761;-69
2022/01/12 12:44:53;;;;;;;36.55;12.48;;;6.80;99.90;;;;;;5053953;28;20366;-69
2022/01/12 12:47:26;;;;;;;44.00;12.68;;;6.80;99.90;;;;;;5051873;28;20060;-68
2022/01/12 12:49:57;;;;;;;35.30;12.13;;;6.90;99.90;;;;;;5053891;28;20044;-69
2022/01/12 12:52:31;;;;;;;40.25;12.20;;;6.90;99.90;;;;;;5053205;28;20056;-67
2022/01/12 12:55:00;;;;;;;28.23;11.35;;;6.90;99.90;;;;;;5051820;28;20052;-68
2022/01/12 12:57:28;;;;;;;33.03;10.10;;;7.00;99.90;;;;;;5053179;28;20460;-68
2022/01/12 13:00:09;;;;;;;30.40;9.85;;;7.00;99.90;;;;;;5053179;28;20114;-70
2022/01/12 13:02:37;;;;;;;34.35;9.75;;;7.00;99.90;;;;;;5052173;28;20713;-69
2022/01/12 13:05:10;;;;;;;28.95;10.45;;;7.10;99.90;;;;;;5053381;28;20052;-69
2022/01/12 13:07:38;;;;;;;23.27;11.05;;;7.10;99.90;;;;;;5052869;28;20243;-70
2022/01/12 13:10:13;;;;;;;31.77;12.30;;;7.10;99.90;;;;;;5051554;28;20079;-70
2022/01/12 13:12:40;;;;;;;28.40;11.65;;;7.20;99.90;;;;;;5041762;28;20064;-70
2022/01/12 13:15:11;;;;;;;37.92;12.00;;;7.20;99.90;;;;;;5051666;28;20106;-69
2022/01/12 13:17:39;;;;;;;33.10;13.23;;;7.20;99.90;;;;;;5050919;28;20052;-69
2022/01/12 13:22:49;;;;;;;28.35;10.45;;;7.30;99.90;;;;;;5052526;28;20053;-69
2022/01/12 13:25:17;;;;;;;31.70;9.95;;;7.30;99.90;;;;;;5053159;28;20075;-69
2022/01/12 13:27:45;;;;;;;33.85;7.97;;;7.30;99.90;;;;;;5053657;28;20049;-69
2022/01/12 13:30:25;;;;;;;25.42;8.02;;;7.40;99.90;;;;;;5052034;28;20045;-69
2022/01/12 13:32:55;;;;;;;27.70;8.70;;;7.40;99.90;;;;;;5052624;28;20204;-66
2022/01/12 13:35:26;;;;;;;27.83;7.88;;;7.40;99.90;;;;;;5053297;28;20463;-69
2022/01/12 13:37:59;;;;;;;29.95;8.48;;;7.40;99.90;;;;;;5052053;28;20045;-69
2022/01/12 13:40:44;;;;;;;30.60;9.68;;;7.40;99.90;;;;;;5052020;28;20060;-70
2022/01/12 13:43:12;;;;;;;25.63;8.55;;;7.50;99.90;;;;;;5051242;28;20143;-70
2022/01/12 13:45:44;;;;;;;33.38;8.95;;;7.50;99.90;;;;;;5051172;28;20122;-69
2022/01/12 13:48:16;;;;;;;32.15;9.25;;;7.60;99.90;;;;;;5050464;28;20041;-69
2022/01/12 13:50:52;;;;;;;28.15;8.45;;;7.60;99.90;;;;;;5050191;28;20041;-70
2022/01/12 13:53:38;;;;;;;32.78;8.73;;;7.60;99.90;;;;;;5050816;28;20063;-69
2022/01/12 13:56:15;;;;;;;25.46;8.28;;;7.70;99.90;;;;;;5028476;28;10001174;-70
2022/01/12 13:58:42;;;;;;;32.95;7.20;;;7.80;99.90;;;;;;5052240;28;20636;-71
2022/01/12 14:01:13;;;;;;;26.15;8.45;;;7.80;99.90;;;;;;5052142;28;20067;-70
2022/01/12 14:03:42;;;;;;;22.90;6.93;;;7.80;99.60;;;;;;5052541;28;20044;-68
2022/01/12 14:06:16;;;;;;;28.13;9.27;;;7.80;99.90;;;;;;5051140;28;20536;-73
2022/01/12 14:08:55;;;;;;;25.65;7.68;;;7.80;99.90;;;;;;5047512;28;20583;-70
2022/01/12 14:11:30;;;;;;;20.80;6.35;;;7.90;99.20;;;;;;5032507;28;20049;-70
2022/01/12 14:13:59;;;;;;;24.02;6.82;;;7.70;99.70;;;;;;5049609;28;20049;-68
2022/01/12 14:16:35;;;;;;;36.75;7.68;;;7.90;98.80;;;;;;5052330;28;20064;-68
2022/01/12 14:19:02;;;;;;;31.85;7.47;;;8.00;99.10;;;;;;5050572;28;20111;-70